createdAt,value
2023-03-31T06:55:29.525Z,100789.59
2023-03-31T06:58:53.046Z,100792.19
2023-03-31T07:56:58.784Z,100745.91
2023-03-31T08:21:59.485Z,100743.56
2023-03-31T08:24:36.239Z,100747.03
2023-03-31T08:48:17.937Z,100708.41
2023-03-31T08:50:56.228Z,100704.03
2023-03-31T08:53:26.863Z,100712.94
2023-03-31T08:55:56.738Z,100713.66
2023-03-31T08:58:51.245Z,100693.53
2023-03-31T09:01:48.373Z,100713.09
2023-03-31T09:04:33.159Z,100717.78
2023-03-31T09:07:43.821Z,100731.19
2023-03-31T09:10:42.214Z,100724.16
2023-03-31T09:13:17.943Z,100744.59
2023-03-31T09:15:53.974Z,100723.50
2023-03-31T09:18:36.089Z,100728.66
2023-03-31T09:21:35.340Z,100718.28
2023-03-31T09:24:15.725Z,100695.38
2023-03-31T09:26:49.382Z,100691.75
2023-03-31T09:29:35.697Z,100687.88
2023-03-31T09:32:28.722Z,100673.34
2023-03-31T09:35:13.580Z,100678.06
2023-03-31T09:37:42.251Z,100687.06
2023-03-31T09:40:26.141Z,100667.97
2023-03-31T09:43:03.471Z,100667.44
2023-03-31T09:45:34.181Z,100655.44
2023-03-31T09:48:07.857Z,100667.31
2023-03-31T09:53:57.320Z,100671.28
2023-03-31T09:56:47.037Z,100645.41
2023-03-31T09:59:20.912Z,100643.69
2023-03-31T10:01:59.268Z,100635.44
2023-03-31T10:04:32.128Z,100626.97
2023-03-31T10:07:04.058Z,100626.66
2023-03-31T10:09:34.494Z,100608.56
2023-03-31T10:12:14.595Z,100605.25
2023-03-31T10:14:47.300Z,100600.06
2023-03-31T10:17:17.914Z,100587.44
2023-03-31T10:19:56.658Z,100589.47
2023-03-31T10:22:31.870Z,100597.47
2023-03-31T10:25:22.767Z,100589.34
2023-03-31T10:27:57.123Z,100592.75
2023-03-31T10:30:38.507Z,100585.66
2023-03-31T10:33:22.822Z,100584.91
2023-03-31T10:35:58.416Z,100575.88
2023-03-31T10:38:43.735Z,100585.41
2023-03-31T10:41:21.152Z,100585.06
2023-03-31T10:43:55.296Z,100582.53
2023-03-31T10:46:45.558Z,100582.19
2023-03-31T10:49:40.431Z,100583.19
2023-03-31T10:52:23.784Z,100570.00
2023-03-31T10:55:13.656Z,100562.72
2023-03-31T10:57:58.358Z,100557.81
2023-03-31T11:01:01.626Z,100552.69
2023-03-31T11:03:32.588Z,100542.22
2023-03-31T11:06:05.968Z,100528.03
2023-03-31T11:09:18.164Z,100516.50
2023-03-31T11:11:46.179Z,100505.31
2023-03-31T11:15:05.118Z,100502.53
2023-03-31T11:17:57.537Z,100498.97
2023-03-31T11:20:31.028Z,100495.81
2023-03-31T11:23:43.087Z,100482.38
2023-03-31T11:26:15.442Z,100461.66
2023-03-31T11:29:16.645Z,100453.59
2023-03-31T11:32:05.051Z,100452.22
2023-03-31T11:34:53.283Z,100456.50
2023-03-31T11:37:31.982Z,100446.13
2023-03-31T11:40:29.109Z,100433.47
2023-03-31T11:43:26.366Z,100422.06
2023-03-31T11:46:15.592Z,100410.06
2023-03-31T11:49:01.536Z,100403.97
2023-03-31T11:51:31.850Z,100390.88
2023-03-31T11:54:04.065Z,100391.63
2023-03-31T11:56:38.823Z,100381.38
2023-03-31T11:59:08.319Z,100371.53
2023-03-31T12:01:42.058Z,100373.47
2023-03-31T12:04:34.278Z,100348.53
2023-03-31T12:07:31.235Z,100343.88
2023-03-31T12:10:20.258Z,100344.38
2023-03-31T12:13:01.242Z,100334.44
2023-03-31T12:15:39.573Z,100331.66
2023-03-31T12:18:18.369Z,100339.00
2023-03-31T12:20:55.891Z,100335.50
2023-03-31T12:23:29.248Z,100318.06
2023-03-31T12:26:46.085Z,100313.09
2023-03-31T12:29:30.359Z,100297.31
2023-03-31T12:32:04.014Z,100294.91
2023-03-31T12:34:34.335Z,100302.66
2023-03-31T12:37:28.499Z,100288.50
2023-03-31T12:39:56.006Z,100287.09
2023-03-31T12:42:51.886Z,100278.91
2023-03-31T12:45:30.445Z,100268.72
2023-03-31T12:48:46.257Z,100266.72
2023-03-31T12:51:35.707Z,100253.63
2023-03-31T12:54:20.776Z,100249.84
2023-03-31T12:57:01.829Z,100255.53
2023-03-31T12:59:35.162Z,100238.97
2023-03-31T13:02:20.333Z,100237.22
2023-03-31T13:04:50.489Z,100228.16
2023-03-31T13:07:29.031Z,100238.47
2023-03-31T13:09:59.758Z,100224.50
2023-03-31T13:12:31.563Z,100209.78
2023-03-31T13:15:00.573Z,100203.16
2023-03-31T13:17:37.139Z,100194.94
2023-03-31T13:20:23.762Z,100194.34
2023-03-31T13:23:02.319Z,100182.31
2023-03-31T13:25:30.639Z,100171.63
2023-03-31T13:28:09.610Z,100175.16
2023-03-31T13:30:37.909Z,100184.66
2023-03-31T13:33:15.829Z,100160.31
2023-03-31T13:35:50.311Z,100181.13
2023-03-31T13:38:41.151Z,100175.50
2023-03-31T13:41:21.990Z,100160.78
2023-03-31T13:43:58.702Z,100156.72
2023-03-31T13:46:49.223Z,100134.00
2023-03-31T13:49:54.795Z,100143.22
2023-03-31T13:52:38.449Z,100135.44
2023-03-31T13:55:26.204Z,100129.00
2023-03-31T13:58:03.248Z,100128.50
2023-03-31T14:00:43.397Z,100131.19
2023-03-31T14:03:37.994Z,100126.00
2023-03-31T14:06:28.241Z,100121.75
2023-03-31T14:09:04.798Z,100113.22
2023-03-31T14:11:33.759Z,100114.91
2023-03-31T14:14:12.372Z,100113.25
2023-03-31T14:16:46.728Z,100076.69
2023-03-31T14:19:33.955Z,100093.69
2023-03-31T14:22:32.183Z,100086.88
2023-03-31T14:25:03.898Z,100087.47
2023-03-31T14:27:44.067Z,100080.09
2023-03-31T14:30:42.774Z,100081.69
2023-03-31T14:33:38.760Z,100063.03
2023-03-31T14:36:38.391Z,100070.44
2023-03-31T14:39:12.883Z,100057.41
2023-03-31T14:41:41.889Z,100060.94
2023-03-31T14:44:21.430Z,100034.84
2023-03-31T14:46:53.081Z,100016.16
2023-03-31T14:49:33.517Z,100011.50
2023-03-31T14:52:06.791Z,100010.72
2023-03-31T14:54:39.154Z,99998.94
2023-03-31T14:57:07.809Z,100011.56
2023-03-31T14:59:37.510Z,100003.63
2023-03-31T15:02:06.636Z,100008.16
2023-03-31T15:04:45.291Z,99999.09
2023-03-31T15:07:15.983Z,100000.81
2023-03-31T15:09:50.154Z,99984.66
2023-03-31T15:12:20.809Z,99986.63
2023-03-31T15:14:51.674Z,99973.75
2023-03-31T15:17:35.119Z,99954.78
2023-03-31T15:20:25.653Z,99967.69
2023-03-31T15:22:57.768Z,99973.34
2023-03-31T15:25:33.012Z,99978.81
2023-03-31T15:28:07.332Z,99978.56
2023-03-31T15:30:37.571Z,99986.31
2023-03-31T15:33:19.012Z,99986.47
2023-03-31T15:35:47.574Z,99988.88
2023-03-31T15:38:18.732Z,99988.00
2023-03-31T15:40:55.244Z,99971.91
2023-03-31T15:43:31.144Z,99964.56
2023-03-31T15:46:03.656Z,99973.34
2023-03-31T15:48:37.766Z,99963.97
2023-03-31T15:51:07.988Z,99974.03
2023-03-31T15:53:46.924Z,99960.72
2023-03-31T15:56:44.474Z,99961.72
2023-03-31T15:59:34.381Z,99965.94
2023-03-31T16:02:12.419Z,99964.81
2023-03-31T16:04:44.095Z,99962.28
2023-03-31T16:07:42.565Z,99971.59
2023-03-31T16:10:23.320Z,99967.94
2023-03-31T16:13:01.811Z,99959.47
2023-03-31T16:15:43.502Z,99957.19
2023-03-31T16:18:24.081Z,99942.47
2023-03-31T16:20:56.192Z,99954.91
2023-03-31T16:23:27.925Z,99961.56
2023-03-31T16:25:56.090Z,99953.72
2023-03-31T16:28:27.675Z,99955.03
2023-03-31T16:30:55.551Z,99961.88
2023-03-31T16:33:24.926Z,99950.75
2023-03-31T16:35:56.645Z,99958.19
2023-03-31T16:38:35.541Z,99937.72
2023-03-31T16:41:07.464Z,99947.13
2023-03-31T16:43:35.342Z,99943.16
2023-03-31T16:46:04.324Z,99944.53
2023-03-31T16:48:35.336Z,99943.38
2023-03-31T16:51:04.709Z,99936.22
2023-03-31T16:53:34.764Z,99943.91
2023-03-31T16:56:04.258Z,99941.81
2023-03-31T16:58:32.038Z,99922.69
2023-03-31T17:01:00.510Z,99911.16
2023-03-31T17:03:28.748Z,99897.31
2023-03-31T17:05:59.197Z,99895.03
2023-03-31T17:08:28.234Z,99898.72
2023-03-31T17:11:02.409Z,99887.19
2023-03-31T17:13:32.726Z,99883.84
2023-03-31T17:16:16.507Z,99875.28
2023-03-31T17:18:46.726Z,99873.25
2023-03-31T17:21:18.496Z,99875.34
2023-03-31T17:23:47.643Z,99886.22
2023-03-31T17:26:16.458Z,99888.69
2023-03-31T17:28:44.447Z,99889.06
2023-03-31T17:31:18.553Z,99889.66
2023-03-31T17:33:47.552Z,99881.69
2023-03-31T17:36:19.129Z,99878.91
2023-03-31T17:38:47.313Z,99878.63
2023-03-31T17:41:18.073Z,99880.53
2023-03-31T17:43:47.519Z,99878.34
2023-03-31T17:46:15.814Z,99875.16
2023-03-31T17:48:43.780Z,99875.63
2023-03-31T17:51:17.061Z,99869.69
2023-03-31T17:53:47.459Z,99868.19
2023-03-31T17:56:16.637Z,99870.91
2023-03-31T17:58:45.403Z,99876.00
2023-03-31T18:01:14.698Z,99873.47
2023-03-31T18:03:42.604Z,99877.00
2023-03-31T18:06:12.716Z,99886.63
2023-03-31T18:08:42.038Z,99883.47
2023-03-31T18:11:11.067Z,99886.38
2023-03-31T18:13:39.021Z,99875.41
2023-03-31T18:16:13.190Z,99890.16
2023-03-31T18:18:43.633Z,99892.19
2023-03-31T18:21:13.922Z,99894.22
2023-03-31T18:23:41.794Z,99889.94
2023-03-31T18:26:12.287Z,99886.97
2023-03-31T18:28:41.490Z,99902.13
2023-03-31T18:31:12.960Z,99905.44
2023-03-31T18:33:42.596Z,99905.06
2023-03-31T18:36:18.646Z,99895.50
2023-03-31T18:38:48.539Z,99894.72
2023-03-31T18:41:18.363Z,99896.75
2023-03-31T18:43:47.905Z,99896.59
2023-03-31T18:46:15.884Z,99892.97
2023-03-31T18:48:44.085Z,99897.28
2023-03-31T18:51:13.728Z,99904.34
2023-03-31T18:53:42.375Z,99895.22
2023-03-31T18:56:10.395Z,99886.97
2023-03-31T18:58:38.801Z,99886.38
2023-03-31T19:01:07.480Z,99898.78
2023-03-31T19:03:36.313Z,99879.50
2023-03-31T19:06:10.068Z,99881.16
2023-03-31T19:08:38.581Z,99886.38
2023-03-31T19:11:12.025Z,99889.22
2023-03-31T19:13:42.521Z,99879.22
2023-03-31T19:16:15.728Z,99874.97
2023-03-31T19:18:46.743Z,99880.41
2023-03-31T19:21:16.938Z,99876.03
2023-03-31T19:58:52.404Z,99847.50
2023-03-31T20:01:30.625Z,99851.91
2023-03-31T20:04:00.755Z,99856.53
2023-03-31T20:06:36.119Z,99840.81
2023-03-31T20:09:09.020Z,99844.94
2023-03-31T20:11:44.305Z,99842.63
2023-03-31T20:14:25.444Z,99837.53
2023-03-31T20:16:56.286Z,99840.16
2023-03-31T20:19:32.200Z,99842.59
2023-03-31T20:22:00.490Z,99830.31
2023-03-31T20:24:42.592Z,99838.69
2023-03-31T20:27:11.584Z,99843.22
2023-03-31T20:29:45.240Z,99830.72
2023-03-31T20:32:15.198Z,99842.03
2023-03-31T20:34:52.530Z,99827.97
2023-03-31T20:37:25.234Z,99839.13
2023-03-31T20:40:07.404Z,99825.50
2023-03-31T20:42:42.692Z,99826.94
2023-03-31T20:45:24.327Z,99824.53
2023-03-31T20:50:46.550Z,99840.66
2023-03-31T20:53:25.758Z,99841.25
2023-03-31T20:55:54.568Z,99831.38
2023-03-31T20:58:25.317Z,99833.75
2023-03-31T21:01:03.321Z,99840.25
2023-03-31T21:03:34.779Z,99841.66
2023-03-31T21:06:11.225Z,99849.28
2023-03-31T21:08:54.318Z,99824.00
2023-03-31T21:11:29.993Z,99846.00
2023-03-31T21:14:01.260Z,99837.38
2023-03-31T21:16:32.960Z,99843.31
2023-03-31T21:19:05.174Z,99846.50
2023-03-31T21:21:37.468Z,99853.66
2023-03-31T21:24:06.960Z,99824.97
2023-03-31T21:26:35.642Z,99815.72
2023-03-31T21:29:08.279Z,99822.06
2023-03-31T21:31:37.761Z,99799.91
2023-03-31T21:34:08.140Z,99792.78
2023-03-31T21:36:37.939Z,99788.88
2023-03-31T21:39:10.438Z,99794.28
2023-03-31T21:41:42.619Z,99784.56
2023-03-31T21:44:20.711Z,99789.09
2023-03-31T21:46:52.324Z,99783.41
2023-03-31T21:49:20.617Z,99783.03
2023-03-31T21:51:49.436Z,99761.06
2023-03-31T21:54:20.305Z,99763.75
2023-03-31T21:56:51.727Z,99766.75
2023-03-31T21:59:20.349Z,99765.69
2023-03-31T22:01:48.889Z,99767.63
2023-03-31T22:04:17.479Z,99752.94
2023-03-31T22:06:47.516Z,99770.53
2023-03-31T22:09:15.965Z,99758.13
2023-03-31T22:11:44.862Z,99755.44
2023-03-31T22:14:13.038Z,99746.06
2023-03-31T22:16:42.238Z,99749.09
2023-03-31T22:19:13.327Z,99753.38
2023-03-31T22:21:43.870Z,99758.19
2023-03-31T22:24:13.758Z,99760.38
2023-03-31T22:26:42.404Z,99766.31
2023-03-31T22:29:15.753Z,99760.72
2023-03-31T22:31:44.008Z,99766.25
2023-03-31T22:34:14.706Z,99759.91
2023-03-31T22:36:44.061Z,99769.00
2023-03-31T22:39:16.816Z,99775.94
2023-03-31T22:41:46.114Z,99786.63
2023-03-31T22:44:14.600Z,99760.41
2023-03-31T22:46:47.833Z,99769.88
2023-03-31T22:49:16.073Z,99770.41
2023-03-31T22:51:45.317Z,99785.63
2023-03-31T22:54:18.342Z,99779.19
2023-03-31T22:56:46.650Z,99764.38
2023-03-31T22:59:17.494Z,99777.47
2023-03-31T23:01:47.548Z,99781.09
2023-03-31T23:04:16.545Z,99772.00
2023-03-31T23:06:47.722Z,99755.94
2023-03-31T23:09:20.504Z,99764.94
2023-03-31T23:11:55.121Z,99762.75
2023-03-31T23:14:23.499Z,99764.69
2023-03-31T23:16:52.118Z,99765.69
2023-03-31T23:19:20.044Z,99738.94
2023-03-31T23:21:48.434Z,99752.09
2023-03-31T23:24:20.033Z,99758.59
2023-03-31T23:26:48.428Z,99738.22
2023-03-31T23:29:16.572Z,99756.13
2023-03-31T23:31:44.856Z,99749.88
2023-03-31T23:34:14.415Z,99749.78
2023-03-31T23:36:42.402Z,99732.63
2023-03-31T23:39:13.154Z,99744.56
2023-03-31T23:41:41.219Z,99731.59
2023-03-31T23:44:11.229Z,99731.34
2023-03-31T23:46:39.972Z,99737.31
2023-03-31T23:49:08.568Z,99727.41
2023-03-31T23:51:36.689Z,99726.44
2023-03-31T23:54:05.151Z,99729.13
2023-03-31T23:56:34.585Z,99708.31
2023-03-31T23:59:02.846Z,99735.31
